sensor_id;sensor_type;location;lat;lon;timestamp;temperature;humidity
18906;DHT22;9585;51.018;4.282;2023-12-22T00:02:24;9.60;99.90
18906;DHT22;9585;51.018;4.282;2023-12-22T00:08:47;9.60;99.90
18906;DHT22;9585;51.018;4.282;2023-12-22T00:12:10;9.50;99.90
18906;DHT22;9585;51.018;4.282;2023-12-22T00:15:07;9.60;99.90
18906;DHT22;9585;51.018;4.282;2023-12-22T00:17:41;9.30;99.90
18906;DHT22;9585;51.018;4.282;2023-12-22T00:20:10;9.30;99.90
18906;DHT22;9585;51.018;4.282;2023-12-22T00:22:40;9.20;99.90
18906;DHT22;9585;51.018;4.282;2023-12-22T00:25:08;9.10;99.90
18906;DHT22;9585;51.018;4.282;2023-12-22T00:27:36;9.10;99.90
18906;DHT22;9585;51.018;4.282;2023-12-22T00:30:07;9.10;99.90
18906;DHT22;9585;51.018;4.282;2023-12-22T00:32:35;9.10;99.90
18906;DHT22;9585;51.018;4.282;2023-12-22T00:35:03;9.00;99.90
18906;DHT22;9585;51.018;4.282;2023-12-22T00:37:32;9.00;99.90
18906;DHT22;9585;51.018;4.282;2023-12-22T00:40:00;9.00;99.90
18906;DHT22;9585;51.018;4.282;2023-12-22T00:42:30;9.00;99.90
18906;DHT22;9585;51.018;4.282;2023-12-22T00:44:57;9.00;99.90
18906;DHT22;9585;51.018;4.282;2023-12-22T00:47:50;8.90;99.90
18906;DHT22;9585;51.018;4.282;2023-12-22T00:50:48;8.80;99.90
18906;DHT22;9585;51.018;4.282;2023-12-22T00:53:30;8.90;99.90
18906;DHT22;9585;51.018;4.282;2023-12-22T00:56:12;8.90;99.90
18906;DHT22;9585;51.018;4.282;2023-12-22T01:12:22;9.20;99.90
18906;DHT22;9585;51.018;4.282;2023-12-22T01:15:10;9.10;99.90
18906;DHT22;9585;51.018;4.282;2023-12-22T01:17:54;9.00;99.90
18906;DHT22;9585;51.018;4.282;2023-12-22T01:20:34;9.00;99.90
18906;DHT22;9585;51.018;4.282;2023-12-22T01:23:02;9.10;99.90
18906;DHT22;9585;51.018;4.282;2023-12-22T01:25:30;9.10;99.90
18906;DHT22;9585;51.018;4.282;2023-12-22T01:28:03;9.10;99.90
18906;DHT22;9585;51.018;4.282;2023-12-22T01:30:32;9.00;99.90
18906;DHT22;9585;51.018;4.282;2023-12-22T01:33:00;9.10;99.90
18906;DHT22;9585;51.018;4.282;2023-12-22T01:35:28;9.20;99.90
18906;DHT22;9585;51.018;4.282;2023-12-22T01:37:57;9.20;99.90
18906;DHT22;9585;51.018;4.282;2023-12-22T01:40:30;9.30;99.90
18906;DHT22;9585;51.018;4.282;2023-12-22T01:42:58;9.40;99.90
18906;DHT22;9585;51.018;4.282;2023-12-22T01:45:29;9.40;99.90
18906;DHT22;9585;51.018;4.282;2023-12-22T01:47:57;9.30;99.90
18906;DHT22;9585;51.018;4.282;2023-12-22T01:50:25;9.40;99.90
18906;DHT22;9585;51.018;4.282;2023-12-22T01:52:54;9.30;99.90
18906;DHT22;9585;51.018;4.282;2023-12-22T01:55:23;9.30;99.90
18906;DHT22;9585;51.018;4.282;2023-12-22T01:57:53;9.30;99.90
18906;DHT22;9585;51.018;4.282;2023-12-22T02:00:23;9.30;99.90
18906;DHT22;9585;51.018;4.282;2023-12-22T02:02:53;9.20;99.90
18906;DHT22;9585;51.018;4.282;2023-12-22T02:05:22;9.30;99.90
18906;DHT22;9585;51.018;4.282;2023-12-22T02:07:50;9.30;99.90
18906;DHT22;9585;51.018;4.282;2023-12-22T02:10:19;9.40;99.90
18906;DHT22;9585;51.018;4.282;2023-12-22T02:12:49;9.40;99.90
18906;DHT22;9585;51.018;4.282;2023-12-22T02:15:17;9.30;99.90
18906;DHT22;9585;51.018;4.282;2023-12-22T02:17:51;9.30;99.90
18906;DHT22;9585;51.018;4.282;2023-12-22T02:20:24;9.30;99.90
18906;DHT22;9585;51.018;4.282;2023-12-22T02:22:54;9.30;99.90
18906;DHT22;9585;51.018;4.282;2023-12-22T02:25:23;9.40;99.90
18906;DHT22;9585;51.018;4.282;2023-12-22T02:27:57;9.40;99.90
18906;DHT22;9585;51.018;4.282;2023-12-22T02:30:31;9.30;99.90
18906;DHT22;9585;51.018;4.282;2023-12-22T02:33:01;9.30;99.90
18906;DHT22;9585;51.018;4.282;2023-12-22T02:35:32;9.30;99.90
18906;DHT22;9585;51.018;4.282;2023-12-22T02:38:04;9.40;99.90
18906;DHT22;9585;51.018;4.282;2023-12-22T02:40:35;9.50;99.90
18906;DHT22;9585;51.018;4.282;2023-12-22T02:43:19;9.40;99.90
18906;DHT22;9585;51.018;4.282;2023-12-22T02:45:50;9.50;99.90
18906;DHT22;9585;51.018;4.282;2023-12-22T02:48:18;9.40;99.90
18906;DHT22;9585;51.018;4.282;2023-12-22T02:50:46;9.30;99.90
18906;DHT22;9585;51.018;4.282;2023-12-22T02:53:17;9.30;99.90
18906;DHT22;9585;51.018;4.282;2023-12-22T02:55:45;9.30;99.90
18906;DHT22;9585;51.018;4.282;2023-12-22T02:58:13;9.30;99.90
18906;DHT22;9585;51.018;4.282;2023-12-22T03:00:42;9.30;99.90
18906;DHT22;9585;51.018;4.282;2023-12-22T03:03:10;9.20;99.90
18906;DHT22;9585;51.018;4.282;2023-12-22T03:05:39;9.20;99.90
18906;DHT22;9585;51.018;4.282;2023-12-22T03:08:08;9.10;99.90
18906;DHT22;9585;51.018;4.282;2023-12-22T03:10:37;9.10;99.90
18906;DHT22;9585;51.018;4.282;2023-12-22T03:13:05;9.20;99.90
18906;DHT22;9585;51.018;4.282;2023-12-22T03:15:33;9.20;99.90
18906;DHT22;9585;51.018;4.282;2023-12-22T03:18:01;9.10;99.90
18906;DHT22;9585;51.018;4.282;2023-12-22T03:20:29;9.10;99.90
18906;DHT22;9585;51.018;4.282;2023-12-22T03:22:57;9.10;99.90
18906;DHT22;9585;51.018;4.282;2023-12-22T03:25:24;9.00;99.90
18906;DHT22;9585;51.018;4.282;2023-12-22T03:27:53;8.90;99.90
18906;DHT22;9585;51.018;4.282;2023-12-22T03:30:21;9.00;99.90
18906;DHT22;9585;51.018;4.282;2023-12-22T03:32:52;9.00;99.90
18906;DHT22;9585;51.018;4.282;2023-12-22T03:35:20;9.00;99.90
18906;DHT22;9585;51.018;4.282;2023-12-22T03:37:47;9.00;99.90
18906;DHT22;9585;51.018;4.282;2023-12-22T03:40:17;9.00;99.90
18906;DHT22;9585;51.018;4.282;2023-12-22T03:42:45;9.00;99.90
18906;DHT22;9585;51.018;4.282;2023-12-22T03:45:14;9.00;99.90
18906;DHT22;9585;51.018;4.282;2023-12-22T03:47:42;9.00;99.90
18906;DHT22;9585;51.018;4.282;2023-12-22T03:50:09;8.90;99.90
18906;DHT22;9585;51.018;4.282;2023-12-22T03:52:37;8.80;99.90
18906;DHT22;9585;51.018;4.282;2023-12-22T03:55:08;8.70;99.90
18906;DHT22;9585;51.018;4.282;2023-12-22T03:57:36;8.60;99.90
18906;DHT22;9585;51.018;4.282;2023-12-22T04:00:04;8.50;99.90
18906;DHT22;9585;51.018;4.282;2023-12-22T04:02:33;8.50;99.90
18906;DHT22;9585;51.018;4.282;2023-12-22T04:05:12;8.50;99.90
18906;DHT22;9585;51.018;4.282;2023-12-22T04:08:15;8.40;99.90
18906;DHT22;9585;51.018;4.282;2023-12-22T04:11:25;8.50;99.90
18906;DHT22;9585;51.018;4.282;2023-12-22T04:14:43;8.40;99.90
18906;DHT22;9585;51.018;4.282;2023-12-22T04:21:38;8.40;99.90
18906;DHT22;9585;51.018;4.282;2023-12-22T04:24:34;8.30;99.90
18906;DHT22;9585;51.018;4.282;2023-12-22T04:27:32;8.30;99.90
18906;DHT22;9585;51.018;4.282;2023-12-22T04:30:29;8.40;99.90
18906;DHT22;9585;51.018;4.282;2023-12-22T04:50:18;8.50;99.90
18906;DHT22;9585;51.018;4.282;2023-12-22T04:52:48;8.40;99.90
18906;DHT22;9585;51.018;4.282;2023-12-22T04:55:22;8.40;99.90
18906;DHT22;9585;51.018;4.282;2023-12-22T04:57:50;8.40;99.90
18906;DHT22;9585;51.018;4.282;2023-12-22T05:00:18;8.40;99.90
18906;DHT22;9585;51.018;4.282;2023-12-22T05:02:47;8.40;99.90
18906;DHT22;9585;51.018;4.282;2023-12-22T05:05:16;8.50;99.90
18906;DHT22;9585;51.018;4.282;2023-12-22T05:07:45;8.50;99.90
18906;DHT22;9585;51.018;4.282;2023-12-22T05:10:16;8.60;99.90
18906;DHT22;9585;51.018;4.282;2023-12-22T05:12:46;8.70;99.90
18906;DHT22;9585;51.018;4.282;2023-12-22T05:15:17;8.70;99.90
18906;DHT22;9585;51.018;4.282;2023-12-22T05:17:50;8.70;99.90
18906;DHT22;9585;51.018;4.282;2023-12-22T05:20:20;8.80;99.90
18906;DHT22;9585;51.018;4.282;2023-12-22T05:22:50;8.90;99.90
18906;DHT22;9585;51.018;4.282;2023-12-22T05:25:22;8.90;99.90
18906;DHT22;9585;51.018;4.282;2023-12-22T05:27:50;9.00;99.90
18906;DHT22;9585;51.018;4.282;2023-12-22T05:30:18;9.10;99.90
18906;DHT22;9585;51.018;4.282;2023-12-22T05:32:46;9.10;99.90
18906;DHT22;9585;51.018;4.282;2023-12-22T05:35:21;9.20;99.90
18906;DHT22;9585;51.018;4.282;2023-12-22T05:37:48;9.20;99.90
18906;DHT22;9585;51.018;4.282;2023-12-22T05:40:16;9.20;99.90
18906;DHT22;9585;51.018;4.282;2023-12-22T05:42:44;9.30;99.90
18906;DHT22;9585;51.018;4.282;2023-12-22T05:45:13;9.40;99.90
18906;DHT22;9585;51.018;4.282;2023-12-22T05:47:41;9.40;99.90
18906;DHT22;9585;51.018;4.282;2023-12-22T05:50:11;9.40;99.90
18906;DHT22;9585;51.018;4.282;2023-12-22T05:52:41;9.40;99.90
18906;DHT22;9585;51.018;4.282;2023-12-22T05:55:10;9.40;99.90
18906;DHT22;9585;51.018;4.282;2023-12-22T05:57:39;9.40;99.90
18906;DHT22;9585;51.018;4.282;2023-12-22T06:00:10;9.40;99.90
18906;DHT22;9585;51.018;4.282;2023-12-22T06:02:39;9.60;99.90
18906;DHT22;9585;51.018;4.282;2023-12-22T06:05:07;9.70;99.90
18906;DHT22;9585;51.018;4.282;2023-12-22T06:07:35;9.70;99.90
18906;DHT22;9585;51.018;4.282;2023-12-22T06:10:05;9.70;99.90
18906;DHT22;9585;51.018;4.282;2023-12-22T06:12:37;9.70;99.90
18906;DHT22;9585;51.018;4.282;2023-12-22T06:15:06;9.60;99.90
18906;DHT22;9585;51.018;4.282;2023-12-22T06:17:34;9.60;99.90
18906;DHT22;9585;51.018;4.282;2023-12-22T06:20:03;9.50;99.90
18906;DHT22;9585;51.018;4.282;2023-12-22T06:22:30;9.60;99.90
18906;DHT22;9585;51.018;4.282;2023-12-22T06:24:58;9.60;99.90
18906;DHT22;9585;51.018;4.282;2023-12-22T06:27:29;9.60;99.90
18906;DHT22;9585;51.018;4.282;2023-12-22T06:29:59;9.60;99.90
18906;DHT22;9585;51.018;4.282;2023-12-22T06:32:29;9.50;99.90
18906;DHT22;9585;51.018;4.282;2023-12-22T06:34:57;9.50;99.90
18906;DHT22;9585;51.018;4.282;2023-12-22T06:37:28;9.50;99.90
18906;DHT22;9585;51.018;4.282;2023-12-22T06:39:56;9.50;99.90
18906;DHT22;9585;51.018;4.282;2023-12-22T06:42:24;9.50;99.90
18906;DHT22;9585;51.018;4.282;2023-12-22T06:44:54;9.40;99.90
18906;DHT22;9585;51.018;4.282;2023-12-22T06:47:22;9.50;99.90
18906;DHT22;9585;51.018;4.282;2023-12-22T06:49:51;9.50;99.90
18906;DHT22;9585;51.018;4.282;2023-12-22T07:05:41;8.90;99.90
18906;DHT22;9585;51.018;4.282;2023-12-22T07:13:24;8.80;99.90
18906;DHT22;9585;51.018;4.282;2023-12-22T07:21:18;8.90;99.90
18906;DHT22;9585;51.018;4.282;2023-12-22T07:23:46;8.90;99.90
18906;DHT22;9585;51.018;4.282;2023-12-22T07:26:14;9.00;99.90
18906;DHT22;9585;51.018;4.282;2023-12-22T07:28:41;9.00;99.90
18906;DHT22;9585;51.018;4.282;2023-12-22T07:31:09;9.00;99.90
18906;DHT22;9585;51.018;4.282;2023-12-22T07:33:37;9.00;99.90
18906;DHT22;9585;51.018;4.282;2023-12-22T07:36:05;9.00;99.90
18906;DHT22;9585;51.018;4.282;2023-12-22T07:38:39;9.00;99.90
18906;DHT22;9585;51.018;4.282;2023-12-22T07:41:07;9.00;99.90
18906;DHT22;9585;51.018;4.282;2023-12-22T07:43:38;9.00;99.90
18906;DHT22;9585;51.018;4.282;2023-12-22T07:46:05;9.10;99.90
18906;DHT22;9585;51.018;4.282;2023-12-22T07:48:37;9.00;99.90
18906;DHT22;9585;51.018;4.282;2023-12-22T07:51:08;9.10;99.90
18906;DHT22;9585;51.018;4.282;2023-12-22T07:53:38;9.10;99.90
18906;DHT22;9585;51.018;4.282;2023-12-22T07:56:11;9.10;99.90
18906;DHT22;9585;51.018;4.282;2023-12-22T07:58:50;9.10;99.90
18906;DHT22;9585;51.018;4.282;2023-12-22T08:01:21;9.20;99.90
18906;DHT22;9585;51.018;4.282;2023-12-22T08:03:50;9.20;99.90
18906;DHT22;9585;51.018;4.282;2023-12-22T08:06:21;9.10;99.90
18906;DHT22;9585;51.018;4.282;2023-12-22T08:08:53;9.20;99.90
18906;DHT22;9585;51.018;4.282;2023-12-22T08:11:23;9.20;99.90
18906;DHT22;9585;51.018;4.282;2023-12-22T08:13:51;9.20;99.90
18906;DHT22;9585;51.018;4.282;2023-12-22T08:16:22;9.20;99.90
18906;DHT22;9585;51.018;4.282;2023-12-22T08:19:15;9.20;99.90
18906;DHT22;9585;51.018;4.282;2023-12-22T08:21:57;9.20;99.90
18906;DHT22;9585;51.018;4.282;2023-12-22T08:31:22;9.30;99.90
18906;DHT22;9585;51.018;4.282;2023-12-22T08:34:19;9.50;99.90
18906;DHT22;9585;51.018;4.282;2023-12-22T08:37:25;9.50;99.90
18906;DHT22;9585;51.018;4.282;2023-12-22T08:40:00;9.40;99.90
18906;DHT22;9585;51.018;4.282;2023-12-22T08:43:11;9.30;99.90
18906;DHT22;9585;51.018;4.282;2023-12-22T08:46:21;9.40;99.90
18906;DHT22;9585;51.018;4.282;2023-12-22T08:49:32;9.30;99.90
18906;DHT22;9585;51.018;4.282;2023-12-22T08:59:08;9.50;99.90
18906;DHT22;9585;51.018;4.282;2023-12-22T09:02:01;9.40;99.90
18906;DHT22;9585;51.018;4.282;2023-12-22T09:04:34;9.40;99.90
18906;DHT22;9585;51.018;4.282;2023-12-22T09:07:02;9.50;99.90
18906;DHT22;9585;51.018;4.282;2023-12-22T09:09:30;9.40;99.90
18906;DHT22;9585;51.018;4.282;2023-12-22T09:11:57;9.40;99.90
18906;DHT22;9585;51.018;4.282;2023-12-22T09:14:25;9.40;99.90
18906;DHT22;9585;51.018;4.282;2023-12-22T09:16:52;9.40;99.90
18906;DHT22;9585;51.018;4.282;2023-12-22T09:19:22;9.50;99.90
18906;DHT22;9585;51.018;4.282;2023-12-22T09:21:55;9.50;99.90
18906;DHT22;9585;51.018;4.282;2023-12-22T09:24:34;9.50;99.90
18906;DHT22;9585;51.018;4.282;2023-12-22T09:27:16;9.50;99.90
18906;DHT22;9585;51.018;4.282;2023-12-22T09:29:50;9.50;99.90
18906;DHT22;9585;51.018;4.282;2023-12-22T09:32:33;9.50;99.90
18906;DHT22;9585;51.018;4.282;2023-12-22T09:35:13;9.60;99.90
18906;DHT22;9585;51.018;4.282;2023-12-22T09:38:28;9.50;99.90
18906;DHT22;9585;51.018;4.282;2023-12-22T09:41:27;9.60;99.90
18906;DHT22;9585;51.018;4.282;2023-12-22T09:43:56;9.50;99.90
18906;DHT22;9585;51.018;4.282;2023-12-22T09:46:27;9.60;99.90
18906;DHT22;9585;51.018;4.282;2023-12-22T09:48:57;9.70;99.90
18906;DHT22;9585;51.018;4.282;2023-12-22T09:51:31;9.70;99.90
18906;DHT22;9585;51.018;4.282;2023-12-22T09:54:01;9.70;99.90
18906;DHT22;9585;51.018;4.282;2023-12-22T09:56:30;9.70;99.90
18906;DHT22;9585;51.018;4.282;2023-12-22T09:58:58;9.70;99.90
18906;DHT22;9585;51.018;4.282;2023-12-22T10:01:27;9.80;99.90
18906;DHT22;9585;51.018;4.282;2023-12-22T10:03:56;9.80;99.90
18906;DHT22;9585;51.018;4.282;2023-12-22T10:06:24;9.80;99.90
18906;DHT22;9585;51.018;4.282;2023-12-22T10:08:52;9.90;99.90
18906;DHT22;9585;51.018;4.282;2023-12-22T10:11:23;10.00;99.90
18906;DHT22;9585;51.018;4.282;2023-12-22T10:13:52;10.00;99.90
18906;DHT22;9585;51.018;4.282;2023-12-22T10:16:21;10.10;99.90
18906;DHT22;9585;51.018;4.282;2023-12-22T10:18:49;10.20;99.90
18906;DHT22;9585;51.018;4.282;2023-12-22T10:21:21;10.20;99.90
18906;DHT22;9585;51.018;4.282;2023-12-22T10:23:49;10.30;99.90
18906;DHT22;9585;51.018;4.282;2023-12-22T10:26:18;10.20;99.90
18906;DHT22;9585;51.018;4.282;2023-12-22T10:28:49;10.20;99.90
18906;DHT22;9585;51.018;4.282;2023-12-22T10:31:17;10.30;99.90
18906;DHT22;9585;51.018;4.282;2023-12-22T10:33:45;10.40;99.90
18906;DHT22;9585;51.018;4.282;2023-12-22T10:36:14;10.30;99.90
18906;DHT22;9585;51.018;4.282;2023-12-22T10:38:42;10.20;99.90
18906;DHT22;9585;51.018;4.282;2023-12-22T10:41:11;10.10;99.90
18906;DHT22;9585;51.018;4.282;2023-12-22T10:43:39;10.10;99.90
18906;DHT22;9585;51.018;4.282;2023-12-22T10:46:09;10.20;99.90
18906;DHT22;9585;51.018;4.282;2023-12-22T10:48:37;10.20;99.90
18906;DHT22;9585;51.018;4.282;2023-12-22T10:51:09;10.20;99.90
18906;DHT22;9585;51.018;4.282;2023-12-22T10:53:41;10.20;99.90
18906;DHT22;9585;51.018;4.282;2023-12-22T10:56:10;10.10;99.90
18906;DHT22;9585;51.018;4.282;2023-12-22T10:58:39;10.20;99.90
18906;DHT22;9585;51.018;4.282;2023-12-22T11:01:09;10.20;99.90
18906;DHT22;9585;51.018;4.282;2023-12-22T11:03:40;10.20;99.90
18906;DHT22;9585;51.018;4.282;2023-12-22T11:06:11;10.20;99.90
18906;DHT22;9585;51.018;4.282;2023-12-22T11:08:40;10.00;99.90
18906;DHT22;9585;51.018;4.282;2023-12-22T11:11:15;9.90;99.90
18906;DHT22;9585;51.018;4.282;2023-12-22T11:13:44;9.80;99.90
18906;DHT22;9585;51.018;4.282;2023-12-22T11:16:14;9.80;99.90
18906;DHT22;9585;51.018;4.282;2023-12-22T11:18:43;9.90;99.90
18906;DHT22;9585;51.018;4.282;2023-12-22T11:21:12;9.90;99.90
18906;DHT22;9585;51.018;4.282;2023-12-22T11:23:42;9.90;99.90
18906;DHT22;9585;51.018;4.282;2023-12-22T11:26:12;10.00;99.90
18906;DHT22;9585;51.018;4.282;2023-12-22T11:28:42;10.10;99.90
18906;DHT22;9585;51.018;4.282;2023-12-22T11:31:29;10.20;99.90
18906;DHT22;9585;51.018;4.282;2023-12-22T11:34:00;10.20;99.90
18906;DHT22;9585;51.018;4.282;2023-12-22T11:36:30;10.20;99.90
18906;DHT22;9585;51.018;4.282;2023-12-22T11:38:59;10.30;99.90
18906;DHT22;9585;51.018;4.282;2023-12-22T11:41:30;10.40;99.90
18906;DHT22;9585;51.018;4.282;2023-12-22T11:44:00;10.30;99.90
18906;DHT22;9585;51.018;4.282;2023-12-22T11:46:31;10.30;99.90
18906;DHT22;9585;51.018;4.282;2023-12-22T11:49:00;10.40;99.90
18906;DHT22;9585;51.018;4.282;2023-12-22T11:51:32;10.40;99.90
18906;DHT22;9585;51.018;4.282;2023-12-22T11:54:01;10.50;99.90
18906;DHT22;9585;51.018;4.282;2023-12-22T11:56:29;10.50;99.90
18906;DHT22;9585;51.018;4.282;2023-12-22T11:58:58;10.50;99.90
18906;DHT22;9585;51.018;4.282;2023-12-22T12:01:27;10.50;99.90
18906;DHT22;9585;51.018;4.282;2023-12-22T12:04:02;10.50;99.90
18906;DHT22;9585;51.018;4.282;2023-12-22T12:06:32;10.50;99.90
18906;DHT22;9585;51.018;4.282;2023-12-22T12:09:05;10.60;99.90
18906;DHT22;9585;51.018;4.282;2023-12-22T12:12:09;10.60;99.90
18906;DHT22;9585;51.018;4.282;2023-12-22T12:14:41;10.70;99.90
18906;DHT22;9585;51.018;4.282;2023-12-22T12:17:11;10.70;99.90
18906;DHT22;9585;51.018;4.282;2023-12-22T12:19:40;10.80;99.90
18906;DHT22;9585;51.018;4.282;2023-12-22T12:22:09;10.70;99.90
18906;DHT22;9585;51.018;4.282;2023-12-22T12:24:39;10.70;99.90
18906;DHT22;9585;51.018;4.282;2023-12-22T12:27:08;10.70;99.90
18906;DHT22;9585;51.018;4.282;2023-12-22T12:29:39;10.60;99.90
18906;DHT22;9585;51.018;4.282;2023-12-22T12:32:07;10.50;99.90
18906;DHT22;9585;51.018;4.282;2023-12-22T12:34:36;10.60;99.90
18906;DHT22;9585;51.018;4.282;2023-12-22T12:37:06;10.60;99.90
18906;DHT22;9585;51.018;4.282;2023-12-22T12:39:35;10.40;99.90
18906;DHT22;9585;51.018;4.282;2023-12-22T12:42:06;10.40;99.90
18906;DHT22;9585;51.018;4.282;2023-12-22T12:44:36;10.40;99.90
18906;DHT22;9585;51.018;4.282;2023-12-22T12:47:12;10.50;99.90
18906;DHT22;9585;51.018;4.282;2023-12-22T12:49:40;10.60;99.90
18906;DHT22;9585;51.018;4.282;2023-12-22T12:52:14;10.50;99.90
18906;DHT22;9585;51.018;4.282;2023-12-22T12:54:42;10.50;99.90
18906;DHT22;9585;51.018;4.282;2023-12-22T12:57:14;10.60;99.90
18906;DHT22;9585;51.018;4.282;2023-12-22T12:59:45;10.70;99.90
18906;DHT22;9585;51.018;4.282;2023-12-22T13:02:17;10.70;99.90
18906;DHT22;9585;51.018;4.282;2023-12-22T13:04:50;10.60;99.90
18906;DHT22;9585;51.018;4.282;2023-12-22T13:07:26;10.60;99.90
18906;DHT22;9585;51.018;4.282;2023-12-22T13:09:54;10.60;99.90
18906;DHT22;9585;51.018;4.282;2023-12-22T13:14:52;10.60;99.90
18906;DHT22;9585;51.018;4.282;2023-12-22T13:17:20;10.70;99.90
18906;DHT22;9585;51.018;4.282;2023-12-22T13:19:51;10.60;99.90
18906;DHT22;9585;51.018;4.282;2023-12-22T13:22:19;10.60;99.90
18906;DHT22;9585;51.018;4.282;2023-12-22T13:24:57;10.60;99.90
18906;DHT22;9585;51.018;4.282;2023-12-22T13:27:31;10.60;99.90
18906;DHT22;9585;51.018;4.282;2023-12-22T13:30:01;10.80;99.90
18906;DHT22;9585;51.018;4.282;2023-12-22T13:32:33;10.80;99.90
18906;DHT22;9585;51.018;4.282;2023-12-22T13:35:01;10.80;99.90
18906;DHT22;9585;51.018;4.282;2023-12-22T13:37:35;10.70;99.90
18906;DHT22;9585;51.018;4.282;2023-12-22T13:40:14;10.60;99.90
18906;DHT22;9585;51.018;4.282;2023-12-22T13:42:42;10.60;99.90
18906;DHT22;9585;51.018;4.282;2023-12-22T13:45:10;10.50;99.90
18906;DHT22;9585;51.018;4.282;2023-12-22T13:47:42;10.60;99.90
18906;DHT22;9585;51.018;4.282;2023-12-22T13:50:16;10.50;99.90
18906;DHT22;9585;51.018;4.282;2023-12-22T13:52:44;10.40;99.90
18906;DHT22;9585;51.018;4.282;2023-12-22T13:55:20;10.50;99.90
18906;DHT22;9585;51.018;4.282;2023-12-22T13:57:58;10.60;99.90
18906;DHT22;9585;51.018;4.282;2023-12-22T14:00:30;10.60;99.90
18906;DHT22;9585;51.018;4.282;2023-12-22T14:03:01;10.70;99.90
18906;DHT22;9585;51.018;4.282;2023-12-22T14:05:32;10.70;99.90
18906;DHT22;9585;51.018;4.282;2023-12-22T14:08:04;10.70;99.90
18906;DHT22;9585;51.018;4.282;2023-12-22T14:10:47;10.70;99.90
18906;DHT22;9585;51.018;4.282;2023-12-22T14:13:21;10.70;99.90
18906;DHT22;9585;51.018;4.282;2023-12-22T14:15:54;10.80;99.90
18906;DHT22;9585;51.018;4.282;2023-12-22T14:18:30;10.70;99.90
18906;DHT22;9585;51.018;4.282;2023-12-22T14:20:58;10.70;99.90
18906;DHT22;9585;51.018;4.282;2023-12-22T14:23:26;10.80;99.90
18906;DHT22;9585;51.018;4.282;2023-12-22T14:25:58;10.80;99.90
18906;DHT22;9585;51.018;4.282;2023-12-22T14:28:29;10.90;99.90
18906;DHT22;9585;51.018;4.282;2023-12-22T14:31:02;10.90;99.90
18906;DHT22;9585;51.018;4.282;2023-12-22T14:33:30;10.90;99.90
18906;DHT22;9585;51.018;4.282;2023-12-22T14:35:58;10.90;99.90
18906;DHT22;9585;51.018;4.282;2023-12-22T14:38:26;10.90;99.90
18906;DHT22;9585;51.018;4.282;2023-12-22T14:40:56;10.80;99.90
18906;DHT22;9585;51.018;4.282;2023-12-22T14:43:24;10.80;99.90
18906;DHT22;9585;51.018;4.282;2023-12-22T14:45:52;10.70;99.90
18906;DHT22;9585;51.018;4.282;2023-12-22T14:48:24;10.70;99.90
18906;DHT22;9585;51.018;4.282;2023-12-22T14:50:57;10.80;99.90
18906;DHT22;9585;51.018;4.282;2023-12-22T14:53:25;10.70;99.90
18906;DHT22;9585;51.018;4.282;2023-12-22T14:55:58;10.70;99.90
18906;DHT22;9585;51.018;4.282;2023-12-22T14:58:29;10.70;99.90
18906;DHT22;9585;51.018;4.282;2023-12-22T15:00:59;10.70;99.90
18906;DHT22;9585;51.018;4.282;2023-12-22T15:03:27;10.60;99.90
18906;DHT22;9585;51.018;4.282;2023-12-22T15:05:55;10.70;99.90
18906;DHT22;9585;51.018;4.282;2023-12-22T15:08:26;10.80;99.90
18906;DHT22;9585;51.018;4.282;2023-12-22T15:10:54;10.70;99.90
18906;DHT22;9585;51.018;4.282;2023-12-22T15:13:25;10.70;99.90
18906;DHT22;9585;51.018;4.282;2023-12-22T15:15:53;10.80;99.90
18906;DHT22;9585;51.018;4.282;2023-12-22T15:18:21;10.80;99.90
18906;DHT22;9585;51.018;4.282;2023-12-22T15:20:49;10.80;99.90
18906;DHT22;9585;51.018;4.282;2023-12-22T15:23:21;10.80;99.90
18906;DHT22;9585;51.018;4.282;2023-12-22T15:25:54;10.90;99.90
18906;DHT22;9585;51.018;4.282;2023-12-22T15:28:25;10.80;99.90
18906;DHT22;9585;51.018;4.282;2023-12-22T15:30:55;10.70;99.90
18906;DHT22;9585;51.018;4.282;2023-12-22T15:33:26;10.80;99.90
18906;DHT22;9585;51.018;4.282;2023-12-22T15:35:55;10.80;99.90
18906;DHT22;9585;51.018;4.282;2023-12-22T15:38:27;10.80;99.90
18906;DHT22;9585;51.018;4.282;2023-12-22T15:40:55;10.80;99.90
18906;DHT22;9585;51.018;4.282;2023-12-22T15:43:43;10.80;99.90
18906;DHT22;9585;51.018;4.282;2023-12-22T15:46:12;10.70;99.90
18906;DHT22;9585;51.018;4.282;2023-12-22T15:48:40;10.80;99.90
18906;DHT22;9585;51.018;4.282;2023-12-22T15:51:09;10.80;99.90
18906;DHT22;9585;51.018;4.282;2023-12-22T15:53:37;10.80;99.90
18906;DHT22;9585;51.018;4.282;2023-12-22T15:56:06;10.80;99.90
18906;DHT22;9585;51.018;4.282;2023-12-22T15:58:38;10.80;99.90
18906;DHT22;9585;51.018;4.282;2023-12-22T16:01:11;10.80;99.90
18906;DHT22;9585;51.018;4.282;2023-12-22T16:03:40;10.90;99.90
18906;DHT22;9585;51.018;4.282;2023-12-22T16:06:09;10.80;99.90
18906;DHT22;9585;51.018;4.282;2023-12-22T16:08:38;10.70;99.90
18906;DHT22;9585;51.018;4.282;2023-12-22T16:11:06;10.70;99.90
18906;DHT22;9585;51.018;4.282;2023-12-22T16:13:34;10.70;99.90
18906;DHT22;9585;51.018;4.282;2023-12-22T16:16:05;10.60;99.90
18906;DHT22;9585;51.018;4.282;2023-12-22T16:18:43;10.70;99.90
18906;DHT22;9585;51.018;4.282;2023-12-22T16:21:13;10.60;99.90
18906;DHT22;9585;51.018;4.282;2023-12-22T16:23:43;10.70;99.90
18906;DHT22;9585;51.018;4.282;2023-12-22T16:26:12;10.70;99.90
18906;DHT22;9585;51.018;4.282;2023-12-22T16:28:40;10.80;99.90
18906;DHT22;9585;51.018;4.282;2023-12-22T16:31:08;10.80;99.90
18906;DHT22;9585;51.018;4.282;2023-12-22T16:33:36;10.80;99.90
18906;DHT22;9585;51.018;4.282;2023-12-22T16:36:09;10.80;99.90
18906;DHT22;9585;51.018;4.282;2023-12-22T16:38:38;10.80;99.90
18906;DHT22;9585;51.018;4.282;2023-12-22T16:41:06;10.70;99.90
18906;DHT22;9585;51.018;4.282;2023-12-22T16:43:35;10.80;99.90
18906;DHT22;9585;51.018;4.282;2023-12-22T16:46:04;10.80;99.90
18906;DHT22;9585;51.018;4.282;2023-12-22T16:48:34;10.80;99.90
18906;DHT22;9585;51.018;4.282;2023-12-22T16:51:04;10.80;99.90
18906;DHT22;9585;51.018;4.282;2023-12-22T16:53:33;10.70;99.90
18906;DHT22;9585;51.018;4.282;2023-12-22T16:56:01;10.70;99.90
18906;DHT22;9585;51.018;4.282;2023-12-22T16:58:29;10.70;99.90
18906;DHT22;9585;51.018;4.282;2023-12-22T17:01:00;10.80;99.90
18906;DHT22;9585;51.018;4.282;2023-12-22T17:03:28;10.70;99.90
18906;DHT22;9585;51.018;4.282;2023-12-22T17:06:01;10.70;99.90
18906;DHT22;9585;51.018;4.282;2023-12-22T17:13:41;10.70;99.90
18906;DHT22;9585;51.018;4.282;2023-12-22T17:16:09;10.80;99.90
18906;DHT22;9585;51.018;4.282;2023-12-22T17:18:39;10.80;99.90
18906;DHT22;9585;51.018;4.282;2023-12-22T17:21:16;10.70;99.90
18906;DHT22;9585;51.018;4.282;2023-12-22T17:23:56;10.70;99.90
18906;DHT22;9585;51.018;4.282;2023-12-22T17:26:24;10.60;99.90
18906;DHT22;9585;51.018;4.282;2023-12-22T17:28:55;10.60;99.90
18906;DHT22;9585;51.018;4.282;2023-12-22T17:31:23;10.70;99.90
18906;DHT22;9585;51.018;4.282;2023-12-22T17:33:51;10.80;99.90
18906;DHT22;9585;51.018;4.282;2023-12-22T17:36:19;10.70;99.90
18906;DHT22;9585;51.018;4.282;2023-12-22T17:38:47;10.70;99.90
18906;DHT22;9585;51.018;4.282;2023-12-22T17:41:16;10.80;99.90
18906;DHT22;9585;51.018;4.282;2023-12-22T17:44:04;10.80;99.90
18906;DHT22;9585;51.018;4.282;2023-12-22T17:46:35;10.70;99.90
18906;DHT22;9585;51.018;4.282;2023-12-22T17:49:22;10.80;99.90
18906;DHT22;9585;51.018;4.282;2023-12-22T17:51:51;10.70;99.90